Time;durP1;ratioP1;P1;durP2;ratioP2;P2;SDS_P1;SDS_P2;PMS_P1;PMS_P2;Temp;Humidity;BMP_temperature;BMP_pressure;BME280_temperature;BME280_humidity;BME280_pressure;Samples;Min_cycle;Max_cycle;Signal;HPM_P1;HPM_P2
2021/10/27 00:01:11;;;;;;;21.13;10.02;;;;;;;8.06;100.00;97248.94;5039393;28;20065;-55
2021/10/27 00:03:40;;;;;;;31.45;10.35;;;;;;;8.24;100.00;97251.19;5045015;28;21161;-56
2021/10/27 00:06:09;;;;;;;19.63;9.63;;;;;;;8.40;100.00;97251.78;5023456;28;20089;-57
2021/10/27 00:08:37;;;;;;;12.40;9.60;;;;;;;8.43;100.00;97253.31;5020650;28;20445;-55
2021/10/27 00:11:06;;;;;;;10.55;9.18;;;;;;;8.40;100.00;97250.94;5020873;28;20099;-58
2021/10/27 00:13:35;;;;;;;10.38;8.90;;;;;;;8.43;100.00;97251.56;5030567;28;20073;-57
2021/10/27 00:16:05;;;;;;;16.25;9.10;;;;;;;8.38;100.00;97251.03;5030401;28;20069;-56
2021/10/27 00:18:35;;;;;;;16.57;8.97;;;;;;;8.32;100.00;97254.91;5021031;28;20077;-58
2021/10/27 00:21:03;;;;;;;19.07;7.90;;;;;;;8.45;100.00;97246.19;5036913;28;20491;-57
2021/10/27 00:23:32;;;;;;;23.30;9.57;;;;;;;8.11;100.00;97251.22;5022784;28;20492;-58
2021/10/27 00:26:00;;;;;;;21.40;11.43;;;;;;;7.87;100.00;97251.16;5014217;28;20097;-58
2021/10/27 00:28:29;;;;;;;82.40;12.55;;;;;;;7.85;100.00;97245.19;5024304;28;20076;-55
2021/10/27 00:30:57;;;;;;;33.40;11.55;;;;;;;8.13;100.00;97256.38;5020493;28;20513;-55
2021/10/27 00:33:26;;;;;;;35.97;9.63;;;;;;;8.25;100.00;97256.31;5021283;28;20085;-57
2021/10/27 00:35:56;;;;;;;37.65;11.00;;;;;;;8.28;100.00;97256.09;5010658;28;20089;-53
2021/10/27 00:38:24;;;;;;;45.78;10.57;;;;;;;8.03;100.00;97266.69;5030774;28;20073;-58
2021/10/27 00:40:53;;;;;;;16.88;9.90;;;;;;;8.01;100.00;97258.06;5026250;28;20469;-57
2021/10/27 00:43:22;;;;;;;11.20;10.00;;;;;;;7.75;100.00;97250.25;5028330;28;20103;-57
2021/10/27 00:45:51;;;;;;;12.23;10.13;;;;;;;7.42;100.00;97260.47;5038785;28;20435;-59
2021/10/27 00:48:20;;;;;;;12.45;9.25;;;;;;;7.85;100.00;97256.53;5044061;28;20104;-56
2021/10/27 00:50:48;;;;;;;13.05;8.45;;;;;;;7.84;100.00;97257.50;5029117;28;20293;-55
2021/10/27 00:53:18;;;;;;;10.05;8.82;;;;;;;7.69;100.00;97266.44;5016718;28;20480;-60
2021/10/27 00:55:47;;;;;;;10.75;8.85;;;;;;;7.45;100.00;97271.59;5031894;28;20060;-58
2021/10/27 00:58:16;;;;;;;12.48;8.98;;;;;;;7.47;100.00;97264.47;5043857;28;20064;-52
2021/10/27 01:00:44;;;;;;;9.43;8.43;;;;;;;7.47;100.00;97266.25;5045183;28;20075;-56
2021/10/27 01:03:13;;;;;;;11.15;9.95;;;;;;;7.18;100.00;97269.06;5041384;28;20053;-54
2021/10/27 01:05:41;;;;;;;11.55;9.50;;;;;;;7.31;100.00;97262.03;5029297;28;20071;-58
2021/10/27 01:08:10;;;;;;;12.48;8.98;;;;;;;7.53;100.00;97266.63;5036251;28;20072;-59
2021/10/27 01:10:41;;;;;;;10.60;9.07;;;;;;;7.41;100.00;97259.63;5035415;28;20065;-58
2021/10/27 01:13:10;;;;;;;9.77;8.77;;;;;;;7.40;100.00;97259.72;5031712;28;20068;-54
2021/10/27 01:15:39;;;;;;;9.95;8.95;;;;;;;7.45;100.00;97250.59;5022618;28;20073;-56
2021/10/27 01:18:09;;;;;;;9.70;8.50;;;;;;;7.58;100.00;97251.44;5025903;28;20084;-57
2021/10/27 01:20:39;;;;;;;9.52;8.57;;;;;;;7.40;100.00;97257.09;5015561;28;20073;-57
2021/10/27 01:23:07;;;;;;;24.30;9.18;;;;;;;7.30;100.00;97254.28;5036950;28;20071;-56
2021/10/27 01:25:36;;;;;;;19.67;9.27;;;;;;;7.42;100.00;97249.97;5039213;28;20069;-58
2021/10/27 01:28:05;;;;;;;19.42;9.27;;;;;;;7.48;100.00;97242.50;5043253;28;20068;-55
2021/10/27 01:30:33;;;;;;;12.02;8.75;;;;;;;7.16;100.00;97242.09;5041898;28;20085;-57
2021/10/27 01:33:02;;;;;;;18.60;9.40;;;;;;;7.13;100.00;97242.31;5045238;28;20072;-57
2021/10/27 01:35:31;;;;;;;10.35;8.63;;;;;;;7.44;100.00;97248.09;5021740;28;20061;-59
2021/10/27 01:38:01;;;;;;;10.23;8.23;;;;;;;7.32;100.00;97245.34;5039816;28;20073;-59
2021/10/27 01:40:29;;;;;;;16.83;7.88;;;;;;;6.94;100.00;97242.69;5046045;28;20094;-57
2021/10/27 01:42:58;;;;;;;10.70;7.68;;;;;;;7.30;100.00;97235.91;5041586;28;20065;-60
2021/10/27 01:45:30;;;;;;;11.50;7.93;;;;;;;7.05;100.00;97241.97;5031027;28;20072;-57
2021/10/27 01:47:59;;;;;;;10.73;8.23;;;;;;;7.02;100.00;97244.78;5051048;28;20065;-58
2021/10/27 01:50:28;;;;;;;9.95;7.88;;;;;;;7.01;100.00;97243.13;5044536;28;20075;-57
2021/10/27 01:52:56;;;;;;;10.52;8.32;;;;;;;7.10;100.00;97242.53;5024203;28;20061;-59
2021/10/27 01:55:27;;;;;;;11.30;8.13;;;;;;;7.09;100.00;97249.56;5010964;28;20074;-55
2021/10/27 01:57:55;;;;;;;15.52;8.80;;;;;;;7.09;100.00;97251.34;5025360;28;20064;-59
2021/10/27 02:00:24;;;;;;;58.25;9.68;;;;;;;7.32;100.00;97245.34;5034753;28;20548;-52
2021/10/27 02:02:52;;;;;;;60.10;9.95;;;;;;;7.21;100.00;97241.78;5034939;28;20092;-57
2021/10/27 02:05:21;;;;;;;39.70;9.77;;;;;;;7.35;100.00;97237.25;5012391;28;20066;-59
2021/10/27 02:07:50;;;;;;;30.88;9.32;;;;;;;7.16;100.00;97234.25;5024210;28;20535;-59
2021/10/27 02:10:18;;;;;;;34.47;9.18;;;;;;;7.04;100.00;97248.16;5030799;28;20449;-56
2021/10/27 02:12:48;;;;;;;20.98;8.57;;;;;;;6.97;100.00;97254.78;5039736;28;20076;-54
2021/10/27 02:15:17;;;;;;;28.85;9.00;;;;;;;7.18;100.00;97250.69;5022311;28;20046;-58
2021/10/27 02:17:45;;;;;;;26.05;9.35;;;;;;;6.57;100.00;97260.88;5045977;28;21468;-56
2021/10/27 02:20:14;;;;;;;55.42;10.18;;;;;;;7.00;100.00;97252.78;5036502;28;20091;-60
2021/10/27 02:22:42;;;;;;;42.50;9.48;;;;;;;6.72;100.00;97251.16;5033933;28;20061;-60
2021/10/27 02:25:11;;;;;;;34.38;11.15;;;;;;;6.65;100.00;97255.97;5021519;28;20037;-57
2021/10/27 02:27:40;;;;;;;29.02;9.20;;;;;;;6.69;100.00;97251.34;5021275;28;21650;-59
2021/10/27 02:30:11;;;;;;;23.98;9.10;;;;;;;6.59;100.00;97255.53;5039435;28;20547;-57
2021/10/27 02:32:39;;;;;;;41.40;9.82;;;;;;;6.30;100.00;97255.66;5030739;28;20049;-57
2021/10/27 02:35:08;;;;;;;30.40;9.70;;;;;;;6.17;100.00;97257.38;5028184;28;20096;-53
2021/10/27 02:37:37;;;;;;;28.67;9.10;;;;;;;6.91;100.00;97263.88;5038841;28;20060;-58
2021/10/27 02:40:08;;;;;;;28.35;8.77;;;;;;;7.13;100.00;97252.81;5025958;28;20053;-57
2021/10/27 02:42:39;;;;;;;19.10;8.43;;;;;;;6.92;100.00;97255.09;5017966;28;20084;-56
2021/10/27 02:45:10;;;;;;;36.42;9.23;;;;;;;7.11;100.00;97244.19;5021717;28;20513;-57
2021/10/27 02:47:40;;;;;;;28.13;9.00;;;;;;;7.09;100.00;97246.09;5044355;28;20106;-58
2021/10/27 02:50:10;;;;;;;45.15;9.10;;;;;;;6.95;100.00;97252.25;5028743;28;20107;-54
2021/10/27 02:52:39;;;;;;;27.83;8.70;;;;;;;6.68;100.00;97261.97;5027948;28;20057;-55
2021/10/27 02:55:08;;;;;;;31.83;9.10;;;;;;;6.92;100.00;97259.47;5025427;28;20067;-58
2021/10/27 02:57:36;;;;;;;19.75;8.02;;;;;;;7.03;100.00;97262.22;5018455;28;20065;-55
2021/10/27 03:00:09;;;;;;;18.02;7.95;;;;;;;6.98;100.00;97264.31;5043062;28;20075;-57
2021/10/27 03:02:39;;;;;;;20.70;8.27;;;;;;;6.73;100.00;97268.56;5049091;28;20457;-58
2021/10/27 03:05:09;;;;;;;20.30;8.90;;;;;;;6.69;100.00;97269.72;5041640;28;20064;-59
2021/10/27 03:07:37;;;;;;;10.77;7.78;;;;;;;6.74;100.00;97270.22;5034836;28;20065;-56
2021/10/27 03:10:07;;;;;;;11.93;7.82;;;;;;;6.62;100.00;97274.50;5035240;28;20058;-53
2021/10/27 03:12:36;;;;;;;9.10;8.20;;;;;;;6.63;100.00;97272.72;5017446;28;20081;-56
2021/10/27 03:15:05;;;;;;;10.93;7.82;;;;;;;6.33;100.00;97273.78;5044984;28;20075;-56
2021/10/27 03:17:33;;;;;;;13.10;8.27;;;;;;;6.37;100.00;97282.28;5016921;28;20521;-55
2021/10/27 03:20:04;;;;;;;10.95;8.13;;;;;;;6.41;100.00;97278.53;5027944;28;20057;-57
2021/10/27 03:22:33;;;;;;;;;;;;;;;6.27;100.00;97281.19;5017080;28;20065;-56
2021/10/27 03:25:01;;;;;;;9.65;8.20;;;;;;;6.13;100.00;97272.44;5021641;28;19956;-57
2021/10/27 03:27:29;;;;;;;19.23;8.90;;;;;;;6.36;100.00;97268.31;5039019;28;20446;-57
2021/10/27 03:29:58;;;;;;;12.32;8.52;;;;;;;6.12;100.00;97267.28;5035941;28;20100;-57
2021/10/27 03:32:27;;;;;;;21.52;8.57;;;;;;;6.26;100.00;97271.63;5026396;28;20092;-56
2021/10/27 03:34:57;;;;;;;26.40;9.02;;;;;;;6.42;100.00;97270.56;5046820;28;20077;-57
2021/10/27 03:37:27;;;;;;;25.15;9.85;;;;;;;6.22;100.00;97270.16;5031336;28;20073;-56
2021/10/27 03:39:55;;;;;;;33.92;9.30;;;;;;;6.33;100.00;97265.06;5017181;28;20064;-54
2021/10/27 03:42:24;;;;;;;18.50;8.52;;;;;;;6.26;100.00;97272.47;5024065;28;20069;-57
2021/10/27 03:44:52;;;;;;;15.80;8.35;;;;;;;6.29;100.00;97271.44;5015116;28;20083;-57
2021/10/27 03:47:21;;;;;;;31.10;9.32;;;;;;;6.17;100.00;97260.81;5028908;28;20064;-59
2021/10/27 03:49:49;;;;;;;17.30;8.40;;;;;;;6.04;100.00;97270.38;5040003;28;20087;-56
2021/10/27 03:52:18;;;;;;;16.75;8.40;;;;;;;6.17;100.00;97273.91;5038784;28;20064;-57
2021/10/27 03:54:48;;;;;;;31.25;9.30;;;;;;;6.01;100.00;97278.44;5024502;28;20061;-56
2021/10/27 03:57:16;;;;;;;25.58;8.65;;;;;;;6.03;100.00;97278.34;5026857;28;20077;-57
2021/10/27 03:59:45;;;;;;;21.30;8.68;;;;;;;6.30;100.00;97279.22;5034236;28;21327;-59
2021/10/27 04:02:13;;;;;;;35.67;8.35;;;;;;;6.18;100.00;97278.19;5042914;28;20073;-59
2021/10/27 04:04:42;;;;;;;25.90;8.43;;;;;;;6.35;100.00;97274.50;5027325;28;20074;-59
2021/10/27 04:07:10;;;;;;;23.30;7.70;;;;;;;5.96;100.00;97274.44;5031403;28;20068;-57
2021/10/27 04:09:39;;;;;;;16.73;8.27;;;;;;;5.97;100.00;97281.34;5044938;28;20073;-59
2021/10/27 04:12:10;;;;;;;9.68;7.82;;;;;;;5.86;100.00;97267.13;5020300;28;20096;-53
2021/10/27 04:14:38;;;;;;;10.73;7.95;;;;;;;5.69;100.00;97273.38;5015633;28;20529;-55
2021/10/27 04:17:07;;;;;;;9.82;7.63;;;;;;;5.75;100.00;97276.53;5032399;28;20076;-57
2021/10/27 04:19:35;;;;;;;9.20;7.57;;;;;;;5.57;100.00;97278.53;5035154;28;20708;-56
2021/10/27 04:22:04;;;;;;;9.32;7.13;;;;;;;5.21;100.00;97288.50;5034406;28;20065;-56
2021/10/27 04:24:32;;;;;;;19.95;7.70;;;;;;;5.13;100.00;97289.91;5035847;28;20084;-58
2021/10/27 04:27:01;;;;;;;16.73;7.20;;;;;;;5.12;100.00;97281.19;5026088;28;20089;-56
2021/10/27 04:29:31;;;;;;;11.95;7.20;;;;;;;5.12;100.00;97289.03;5030749;28;20069;-58
2021/10/27 04:32:00;;;;;;;;;;;;;;;5.10;100.00;97290.91;5047770;28;20084;-58
2021/10/27 04:34:28;;;;;;;13.25;6.43;;;;;;;5.28;100.00;97288.97;5048661;28;20676;-58
2021/10/27 04:36:56;;;;;;;31.60;6.70;;;;;;;5.30;100.00;97291.47;5033427;28;20069;-57
2021/10/27 04:39:25;;;;;;;21.92;6.28;;;;;;;5.58;100.00;97282.84;5017922;28;20083;-53
2021/10/27 04:41:53;;;;;;;25.20;7.00;;;;;;;5.79;100.00;97293.75;5020288;28;20521;-57
2021/10/27 04:44:22;;;;;;;25.30;7.00;;;;;;;5.91;100.00;97293.81;5041669;28;20068;-58
2021/10/27 04:46:52;;;;;;;19.63;7.38;;;;;;;6.13;100.00;97287.31;5037052;28;20064;-56
2021/10/27 04:49:21;;;;;;;16.40;7.28;;;;;;;6.03;100.00;97292.28;5033347;28;20525;-58
2021/10/27 04:51:49;;;;;;;26.30;7.45;;;;;;;5.95;100.00;97289.28;5043077;28;20072;-54
2021/10/27 04:54:18;;;;;;;20.80;7.03;;;;;;;6.21;100.00;97298.13;5026433;28;20085;-55
2021/10/27 04:56:46;;;;;;;21.33;7.35;;;;;;;6.30;100.00;97294.94;5019286;28;21371;-59
2021/10/27 04:59:15;;;;;;;14.27;7.10;;;;;;;6.38;100.00;97302.28;5023976;28;20073;-55
2021/10/27 05:01:45;;;;;;;13.38;7.15;;;;;;;6.44;100.00;97298.47;5038172;28;20061;-57
2021/10/27 05:04:16;;;;;;;8.57;6.82;;;;;;;6.33;100.00;97297.38;5046487;28;20476;-59
2021/10/27 05:06:44;;;;;;;;;;;;;;;6.24;100.00;97299.72;5047748;28;20075;-59
2021/10/27 05:09:12;;;;;;;11.82;6.68;;;;;;;6.20;100.00;97298.25;5049331;28;20364;-56
2021/10/27 05:11:41;;;;;;;10.73;7.05;;;;;;;6.30;100.00;97308.03;5020087;28;20069;-56
2021/10/27 05:14:10;;;;;;;9.93;7.32;;;;;;;6.42;100.00;97301.16;5027976;28;20061;-57
2021/10/27 05:16:39;;;;;;;9.52;6.68;;;;;;;6.28;100.00;97303.81;5027271;28;20069;-57
2021/10/27 05:19:07;;;;;;;8.07;6.80;;;;;;;6.44;100.00;97306.31;5045742;28;20083;-56
2021/10/27 05:21:37;;;;;;;8.23;6.80;;;;;;;6.46;100.00;97302.63;5044154;28;20091;-59
2021/10/27 05:24:06;;;;;;;20.65;7.68;;;;;;;6.42;100.00;97309.84;5026018;28;20076;-57
2021/10/27 05:26:34;;;;;;;21.42;7.35;;;;;;;6.50;100.00;97298.03;5035467;28;20072;-55
2021/10/27 05:29:02;;;;;;;18.40;7.40;;;;;;;6.41;100.00;97305.56;5017804;28;20038;-57
2021/10/27 05:31:31;;;;;;;15.73;7.65;;;;;;;6.07;100.00;97313.88;5036236;28;20079;-56
2021/10/27 05:34:00;;;;;;;11.45;7.30;;;;;;;6.06;100.00;97315.66;5044253;28;20067;-59
2021/10/27 05:36:29;;;;;;;11.13;7.13;;;;;;;6.13;100.00;97313.50;5044213;28;20084;-57
2021/10/27 05:38:59;;;;;;;29.40;7.60;;;;;;;6.14;100.00;97318.63;5032624;28;20080;-58
2021/10/27 05:41:27;;;;;;;28.63;7.85;;;;;;;6.02;100.00;97315.91;5026453;28;20065;-57
2021/10/27 05:43:56;;;;;;;21.35;8.23;;;;;;;5.28;100.00;97327.38;5019349;28;20065;-58
2021/10/27 05:46:25;;;;;;;12.73;7.93;;;;;;;5.48;100.00;97324.41;5027298;28;20556;-52
2021/10/27 05:49:02;;;;;;;33.28;8.13;;;;;;;5.59;100.00;97321.16;5028460;28;20714;-57
2021/10/27 05:51:41;;;;;;;17.35;8.43;;;;;;;5.24;100.00;97322.31;5023581;28;20085;-58
2021/10/27 05:56:57;;;;;;;35.72;9.30;;;;;;;5.39;100.00;97332.78;5044403;28;20057;-57
2021/10/27 05:59:26;;;;;;;12.38;8.35;;;;;;;5.50;100.00;97332.16;5041668;28;20461;-56
2021/10/27 06:01:55;;;;;;;15.50;8.77;;;;;;;5.52;100.00;97336.38;5037301;28;20068;-59
2021/10/27 06:04:24;;;;;;;18.85;9.32;;;;;;;5.75;100.00;97323.66;5030952;28;20091;-57
2021/10/27 06:06:52;;;;;;;31.52;8.63;;;;;;;5.55;100.00;97333.56;5031524;28;20063;-58
2021/10/27 06:09:22;;;;;;;22.60;8.13;;;;;;;5.61;100.00;97337.56;5053288;28;20067;-55
2021/10/27 06:11:51;;;;;;;24.02;9.00;;;;;;;5.83;100.00;97334.53;5052756;28;20081;-60
2021/10/27 06:14:19;;;;;;;24.83;8.57;;;;;;;5.69;100.00;97340.59;5028673;28;20073;-60
2021/10/27 06:16:48;;;;;;;11.05;7.53;;;;;;;5.57;100.00;97343.94;5021307;28;20057;-60
2021/10/27 06:19:16;;;;;;;16.40;8.13;;;;;;;5.51;100.00;97345.16;5018238;28;20068;-57
2021/10/27 06:21:45;;;;;;;12.77;8.52;;;;;;;6.04;100.00;97337.63;5015158;28;20071;-58
2021/10/27 06:24:13;;;;;;;10.02;7.88;;;;;;;5.66;100.00;97340.78;5043750;28;20076;-58
2021/10/27 06:26:44;;;;;;;13.35;8.82;;;;;;;6.00;100.00;97341.38;5044395;28;20525;-57
2021/10/27 06:29:19;;;;;;;14.15;9.02;;;;;;;6.09;100.00;97339.03;5031350;28;20135;-57
2021/10/27 06:31:50;;;;;;;15.68;9.73;;;;;;;6.43;100.00;97331.66;5022546;28;20050;-55
2021/10/27 06:34:28;;;;;;;21.48;10.20;;;;;;;6.26;100.00;97334.50;5034611;28;20657;-56
2021/10/27 06:48:01;;;;;;;12.10;8.07;;;;;;;7.09;100.00;97356.25;5039092;28;20295;-60
2021/10/27 06:50:29;;;;;;;12.93;8.43;;;;;;;7.29;100.00;97365.41;5022458;28;20085;-59
2021/10/27 06:52:58;;;;;;;10.98;8.15;;;;;;;7.51;100.00;97360.41;5038650;28;20068;-58
2021/10/27 06:55:26;;;;;;;11.07;7.57;;;;;;;7.54;100.00;97354.97;5048730;28;20087;-59
2021/10/27 06:57:57;;;;;;;27.50;13.50;;;;;;;7.22;100.00;97359.72;5039474;28;20072;-57
2021/10/27 07:00:34;;;;;;;25.27;12.23;;;;;;;7.52;100.00;97364.72;5040462;28;20097;-57
2021/10/27 07:03:31;;;;;;;9.07;7.20;;;;;;;7.40;100.00;97368.16;5050614;28;20087;-59
2021/10/27 07:17:21;;;;;;;5.90;4.90;;;;;;;7.17;100.00;97369.69;5020118;28;20520;-59
2021/10/27 07:19:49;;;;;;;6.50;5.50;;;;;;;7.79;100.00;97362.00;5028421;28;20061;-56
2021/10/27 07:22:18;;;;;;;7.25;5.55;;;;;;;7.88;100.00;97367.53;5048062;28;20068;-55
2021/10/27 07:24:46;;;;;;;9.73;6.50;;;;;;;7.78;100.00;97370.00;5047247;28;20699;-58
2021/10/27 07:27:15;;;;;;;7.38;5.95;;;;;;;7.96;100.00;97363.47;5020204;28;20085;-59
2021/10/27 07:29:45;;;;;;;9.45;6.63;;;;;;;8.49;100.00;97364.13;5020361;28;20070;-59
2021/10/27 07:32:15;;;;;;;9.40;6.53;;;;;;;8.76;100.00;97361.31;5028513;28;20065;-57
2021/10/27 07:34:48;;;;;;;11.82;6.88;;;;;;;9.15;100.00;97356.72;5025776;28;20072;-56
2021/10/27 07:40:33;;;;;;;9.60;6.20;;;;;;;9.44;100.00;97354.53;5027139;28;20064;-59
2021/10/27 07:43:00;;;;;;;9.10;5.80;;;;;;;9.64;100.00;97347.78;5046211;28;20076;-55
2021/10/27 07:45:31;;;;;;;8.40;5.75;;;;;;;9.81;100.00;97348.28;5043547;28;20079;-56
2021/10/27 07:48:01;;;;;;;9.30;5.10;;;;;;;9.87;100.00;97361.78;5042192;28;20537;-56
2021/10/27 07:50:30;;;;;;;7.47;5.47;;;;;;;9.74;100.00;97363.72;5047286;28;20083;-58
2021/10/27 07:52:59;;;;;;;6.03;4.95;;;;;;;10.34;100.00;97348.56;5031406;28;20080;-60
2021/10/27 07:55:28;;;;;;;6.77;5.20;;;;;;;10.52;100.00;97352.34;5041102;28;20479;-54
2021/10/27 07:57:57;;;;;;;5.30;4.80;;;;;;;10.77;100.00;97356.53;5031096;28;20077;-59
2021/10/27 08:00:29;;;;;;;6.93;4.80;;;;;;;10.42;100.00;97359.31;5042229;28;20138;-59
2021/10/27 08:03:02;;;;;;;6.30;4.95;;;;;;;10.74;100.00;97355.94;5048929;28;20088;-59
2021/10/27 08:05:37;;;;;;;7.47;5.25;;;;;;;10.98;100.00;97351.31;5018955;28;20654;-59
2021/10/27 08:08:07;;;;;;;8.45;5.30;;;;;;;11.08;100.00;97346.97;5021238;28;20076;-59
2021/10/27 08:10:36;;;;;;;8.30;5.60;;;;;;;11.05;100.00;97352.47;5033420;28;20452;-58
2021/10/27 08:13:05;;;;;;;6.93;5.57;;;;;;;11.52;100.00;97360.88;5040408;28;20901;-60
2021/10/27 08:15:34;;;;;;;5.63;5.00;;;;;;;11.98;100.00;97349.13;5019991;28;20565;-57
2021/10/27 08:18:09;;;;;;;18.33;5.25;;;;;;;11.84;100.00;97352.13;5017112;28;20053;-58
2021/10/27 08:20:38;;;;;;;8.88;5.88;;;;;;;12.40;100.00;97351.66;5014678;28;20065;-56
2021/10/27 08:23:09;;;;;;;8.75;6.38;;;;;;;12.39;100.00;97346.50;5012863;28;20069;-55
2021/10/27 08:25:42;;;;;;;8.27;6.20;;;;;;;12.31;100.00;97349.81;5022839;28;20075;-60
2021/10/27 08:28:13;;;;;;;8.27;5.85;;;;;;;12.99;100.00;97347.34;5008921;28;20068;-58
2021/10/27 08:30:47;;;;;;;11.35;6.55;;;;;;;13.07;100.00;97347.47;5026433;28;20562;-59
2021/10/27 08:33:24;;;;;;;9.75;6.50;;;;;;;12.73;100.00;97336.41;5036697;28;20065;-57
2021/10/27 08:35:53;;;;;;;10.93;6.43;;;;;;;12.73;100.00;97339.06;5016472;28;20351;-56
2021/10/27 08:38:22;;;;;;;9.23;6.40;;;;;;;13.32;100.00;97345.28;5038890;28;20525;-57
2021/10/27 08:40:51;;;;;;;10.48;8.10;;;;;;;13.43;100.00;97346.00;5038550;28;20060;-56
2021/10/27 08:43:19;;;;;;;9.88;6.32;;;;;;;13.37;100.00;97343.88;5037083;28;20072;-57
2021/10/27 08:45:47;;;;;;;7.63;5.88;;;;;;;13.10;100.00;97349.84;5038863;28;20470;-56
2021/10/27 08:48:17;;;;;;;6.65;5.45;;;;;;;13.76;100.00;97350.00;5010548;28;20537;-60
2021/10/27 08:50:47;;;;;;;7.28;5.43;;;;;;;13.52;100.00;97352.25;5014949;28;21398;-57
2021/10/27 08:53:17;;;;;;;8.40;6.20;;;;;;;13.88;100.00;97355.13;5013683;28;20069;-61
2021/10/27 08:55:49;;;;;;;8.75;6.07;;;;;;;13.98;100.00;97350.63;5017546;28;20069;-60
2021/10/27 08:58:22;;;;;;;8.32;5.93;;;;;;;13.93;100.00;97356.34;5035795;28;20049;-57
2021/10/27 09:00:59;;;;;;;9.35;6.18;;;;;;;13.77;100.00;97358.78;5013127;28;20061;-57
2021/10/27 09:03:38;;;;;;;9.07;6.80;;;;;;;13.87;100.00;97358.78;5013029;28;20085;-59
2021/10/27 09:06:23;;;;;;;12.02;7.15;;;;;;;14.34;100.00;97350.78;5036079;28;20069;-58
2021/10/27 09:09:25;;;;;;;9.15;6.38;;;;;;;14.30;100.00;97342.28;5033682;28;20102;-57
2021/10/27 10:04:11;;;;;;;14.70;8.40;;;;;;;14.85;100.00;97330.84;5024632;28;20065;-56
2021/10/27 10:06:45;;;;;;;16.77;8.98;;;;;;;15.04;100.00;97332.53;5046579;28;20075;-58
2021/10/27 10:09:14;;;;;;;;;;;;;;;14.76;100.00;97334.38;5039394;28;20081;-53
2021/10/27 10:11:44;;;;;;;13.48;9.07;;;;;;;14.92;100.00;97335.41;5040489;28;20356;-57
2021/10/27 10:14:13;;;;;;;13.60;9.88;;;;;;;14.77;100.00;97334.25;5033998;28;20706;-58
2021/10/27 10:16:45;;;;;;;14.37;10.23;;;;;;;14.68;100.00;97332.47;5033934;28;20166;-60
2021/10/27 10:19:15;;;;;;;28.35;12.82;;;;;;;14.77;100.00;97318.31;5031048;28;20068;-60
2021/10/27 10:21:45;;;;;;;17.58;11.18;;;;;;;14.82;100.00;97323.16;5028811;28;20547;-56
2021/10/27 10:24:30;;;;;;;11.73;9.50;;;;;;;14.63;100.00;97324.16;5047666;28;20817;-57
2021/10/27 10:27:03;;;;;;;15.80;11.65;;;;;;;14.96;100.00;97314.69;5038274;28;20293;-55
2021/10/27 10:29:51;;;;;;;16.33;11.95;;;;;;;15.40;100.00;97325.38;5027247;28;20567;-58
2021/10/27 10:32:31;;;;;;;15.05;11.07;;;;;;;15.47;100.00;97325.59;5020863;28;20474;-57
2021/10/27 10:35:02;;;;;;;19.98;13.25;;;;;;;15.54;100.00;97316.03;5022656;28;20061;-58
2021/10/27 10:37:35;;;;;;;15.68;12.70;;;;;;;15.33;100.00;97313.69;5047038;28;20060;-56
2021/10/27 10:40:49;;;;;;;18.70;12.35;;;;;;;15.90;100.00;97301.69;5034313;28;20465;-58
2021/10/27 11:25:01;;;;;;;;;;;;;;;16.11;100.00;97258.72;5016301;28;20058;-59
2021/10/27 11:39:20;;;;;;;20.73;16.02;;;;;;;16.64;100.00;97227.44;5015573;28;20124;-57
2021/10/27 11:41:54;;;;;;;16.10;12.25;;;;;;;16.06;100.00;97228.25;5020727;28;21690;-60
2021/10/27 11:44:36;;;;;;;16.25;12.85;;;;;;;16.56;100.00;97227.44;5034383;28;20068;-59
2021/10/27 11:47:08;;;;;;;18.65;13.88;;;;;;;16.29;100.00;97226.69;5044276;28;20099;-59
2021/10/27 11:49:40;;;;;;;16.23;13.13;;;;;;;16.59;100.00;97222.63;5028498;28;20543;-59
2021/10/27 11:52:10;;;;;;;17.77;13.07;;;;;;;16.52;100.00;97223.44;5032209;28;20061;-59
2021/10/27 11:54:40;;;;;;;16.20;11.35;;;;;;;16.46;100.00;97224.09;5015009;28;20085;-60
2021/10/27 11:57:10;;;;;;;;;;;;;;;16.38;100.00;97219.56;5020782;28;20104;-59
2021/10/27 11:59:40;;;;;;;17.50;12.27;;;;;;;16.26;100.00;97215.53;5046367;28;19960;-59
2021/10/27 12:02:09;;;;;;;15.65;12.02;;;;;;;16.40;100.00;97209.56;5023596;28;20072;-58
2021/10/27 12:04:38;;;;;;;14.55;11.65;;;;;;;16.81;100.00;97199.03;5027291;28;20445;-58
2021/10/27 12:07:13;;;;;;;17.17;12.30;;;;;;;17.01;100.00;97202.22;5025804;28;20063;-57
2021/10/27 12:10:00;;;;;;;20.13;11.32;;;;;;;16.25;100.00;97197.91;5045494;28;20068;-59
2021/10/27 12:12:34;;;;;;;15.00;11.02;;;;;;;16.49;100.00;97194.47;5034086;28;20556;-53
2021/10/27 12:18:01;;;;;;;15.45;11.57;;;;;;;16.95;100.00;97187.69;5027063;28;21795;-57
2021/10/27 12:20:34;;;;;;;14.70;10.50;;;;;;;16.54;100.00;97176.16;5028030;28;20073;-57
2021/10/27 12:23:04;;;;;;;13.73;11.30;;;;;;;16.47;100.00;97172.50;5039716;28;20102;-56
2021/10/27 12:25:34;;;;;;;14.30;11.18;;;;;;;16.35;100.00;97172.81;5027103;28;20080;-58
2021/10/27 12:28:06;;;;;;;16.58;12.10;;;;;;;16.65;100.00;97173.16;5027406;28;20068;-56
2021/10/27 12:30:38;;;;;;;16.88;11.68;;;;;;;16.74;100.00;97171.34;5032611;28;20096;-60
2021/10/27 12:33:07;;;;;;;13.82;10.98;;;;;;;16.72;100.00;97160.84;5019835;28;20082;-58
2021/10/27 12:35:36;;;;;;;15.73;10.35;;;;;;;16.99;100.00;97164.22;5032386;28;20533;-58
2021/10/27 12:38:28;;;;;;;15.40;11.20;;;;;;;16.44;100.00;97162.16;5020158;28;20530;-60
2021/10/27 12:41:01;;;;;;;13.82;10.63;;;;;;;16.53;100.00;97162.00;5009061;28;20082;-60
2021/10/27 12:43:33;;;;;;;16.65;12.85;;;;;;;16.56;100.00;97158.19;5020760;28;20072;-59
2021/10/27 12:46:02;;;;;;;17.38;11.65;;;;;;;16.88;100.00;97145.91;5023709;28;20072;-59
2021/10/27 12:48:37;;;;;;;18.95;14.20;;;;;;;16.91;100.00;97150.91;5011130;28;20085;-56
2021/10/27 12:51:09;;;;;;;20.33;13.93;;;;;;;16.68;100.00;97148.88;5014597;28;20085;-59
2021/10/27 12:53:40;;;;;;;17.25;12.75;;;;;;;17.07;100.00;97150.91;5051454;28;20068;-59
2021/10/27 12:56:12;;;;;;;19.45;12.80;;;;;;;16.80;100.00;97152.91;5046135;28;20064;-58
2021/10/27 12:58:44;;;;;;;19.23;14.00;;;;;;;16.91;100.00;97145.59;5035182;28;20434;-53
2021/10/27 13:01:25;;;;;;;17.05;14.23;;;;;;;16.73;100.00;97141.22;5020816;28;20064;-60
2021/10/27 13:06:50;;;;;;;20.95;15.38;;;;;;;17.00;100.00;97137.44;5009638;28;20181;-59
2021/10/27 13:18:09;;;;;;;20.58;15.45;;;;;;;16.95;100.00;97128.25;5034248;28;20552;-59
2021/10/27 13:31:43;;;;;;;25.63;17.80;;;;;;;16.94;100.00;97115.94;5034320;28;20554;-60
2021/10/27 13:34:11;;;;;;;26.55;18.00;;;;;;;16.33;100.00;97118.06;5044585;28;20114;-59
2021/10/27 13:36:40;;;;;;;24.20;17.95;;;;;;;16.46;100.00;97112.25;5038465;28;20092;-55
2021/10/27 13:39:09;;;;;;;23.98;16.13;;;;;;;16.60;100.00;97112.41;5047704;28;20081;-61
2021/10/27 13:41:38;;;;;;;21.75;16.50;;;;;;;16.49;100.00;97106.59;5041175;28;20084;-60
2021/10/27 13:44:12;;;;;;;22.85;17.33;;;;;;;16.45;100.00;97102.59;5045400;28;20543;-57
2021/10/27 13:57:39;;;;;;;21.27;14.95;;;;;;;16.50;100.00;97109.09;5010390;28;20077;-60
2021/10/27 13:58:43;;;;;;;21.73;16.55;;;;;;;16.42;100.00;97100.28;5005002;28;20560;-57
2021/10/27 14:07:05;;;;;;;25.35;17.75;;;;;;;16.14;100.00;97095.25;5045994;28;20072;-61
2021/10/27 14:09:39;;;;;;;23.50;17.30;;;;;;;16.16;100.00;97084.44;5044232;28;20090;-58
2021/10/27 14:12:19;;;;;;;27.05;18.15;;;;;;;16.46;100.00;97096.28;5051697;28;20095;-60
2021/10/27 14:15:11;;;;;;;30.15;19.30;;;;;;;16.12;100.00;97091.91;5043451;28;20317;-59
2021/10/27 14:17:55;;;;;;;27.73;18.70;;;;;;;16.09;100.00;97086.91;5041180;28;20080;-59
2021/10/27 14:50:29;;;;;;;29.40;20.27;;;;;;;15.98;100.00;97090.72;5051826;28;20081;-59
2021/10/27 15:21:55;;;;;;;34.08;24.42;;;;;;;14.74;100.00;97089.44;5033738;28;20072;-60
2021/10/27 15:25:03;;;;;;;33.28;21.77;;;;;;;14.35;100.00;97084.44;5019445;28;20476;-57
2021/10/27 15:30:27;;;;;;;36.60;24.67;;;;;;;14.30;100.00;97079.59;5039938;28;20087;-59
2021/10/27 15:36:05;;;;;;;35.85;24.00;;;;;;;14.08;100.00;97083.56;5026573;28;20300;-58
2021/10/27 15:41:31;;;;;;;42.08;25.73;;;;;;;13.86;100.00;97083.97;5031425;28;20080;-59
2021/10/27 15:44:15;;;;;;;41.15;24.75;;;;;;;13.73;100.00;97079.91;5037432;28;20077;-60